createdAt,value
2019-02-02T00:00:47.916Z,95880.74
2019-02-02T00:03:16.054Z,95874.95
2019-02-02T00:05:45.791Z,95890.95
2019-02-02T00:08:15.053Z,95884.95
2019-02-02T00:10:45.391Z,95884.95
2019-02-02T00:13:16.915Z,95911.61
2019-02-02T00:15:46.740Z,95902.06
2019-02-02T00:18:16.572Z,95902.06
2019-02-02T00:21:00.581Z,95919.95
2019-02-02T00:23:30.729Z,95920.06
2019-02-02T00:25:59.895Z,95920.06
2019-02-02T00:28:29.947Z,95917.63
2019-02-02T00:31:00.637Z,95904.23
2019-02-02T00:36:00.852Z,95920.73
2019-02-02T00:38:29.646Z,95920.73
2019-02-02T00:40:59.267Z,95920.05
2019-02-02T00:43:29.781Z,95931.16
2019-02-02T00:45:59.163Z,95927.84
2019-02-02T00:48:28.925Z,95927.84
2019-02-02T00:51:00.352Z,95923.40
2019-02-02T00:53:30.340Z,95933.28
2019-02-02T00:57:04.697Z,95923.95
2019-02-02T00:59:34.229Z,95923.95
2019-02-02T01:02:04.750Z,95892.28
2019-02-02T01:04:33.741Z,95892.28
2019-02-02T01:07:04.714Z,95917.61
2019-02-02T01:09:33.821Z,95911.41
2019-02-02T01:12:05.077Z,95911.49
2019-02-02T01:17:20.758Z,95950.25
2019-02-02T01:19:51.032Z,95948.46
2019-02-02T01:22:21.558Z,95930.43
2019-02-02T01:24:53.117Z,95956.78
2019-02-02T01:27:21.066Z,95956.78
2019-02-02T01:29:51.047Z,95958.45
2019-02-02T01:32:21.297Z,95973.30
2019-02-02T01:34:51.060Z,95970.03
2019-02-02T01:37:20.355Z,95969.47
2019-02-02T01:39:49.688Z,95960.91
2019-02-02T01:42:18.711Z,95960.02
2019-02-02T01:44:48.924Z,95949.10
2019-02-02T01:47:20.156Z,95966.12
2019-02-02T01:49:50.664Z,95972.02
2019-02-02T01:52:18.889Z,95972.02
2019-02-02T01:54:48.919Z,95964.65
2019-02-02T01:57:19.358Z,95943.86
2019-02-02T01:59:48.027Z,95943.86
2019-02-02T02:02:16.062Z,95952.20
2019-02-02T02:04:43.875Z,95952.42
2019-02-02T02:07:13.045Z,95922.87
2019-02-02T02:09:42.769Z,95941.53
2019-02-02T02:12:12.577Z,95941.53
2019-02-02T02:14:40.878Z,95952.66
2019-02-02T02:17:09.791Z,95956.77
2019-02-02T02:19:38.781Z,95956.77
2019-02-02T02:22:09.039Z,95960.42
2019-02-02T02:24:38.935Z,95954.52
2019-02-02T02:27:07.646Z,95939.08
2019-02-02T02:29:36.656Z,95923.30
2019-02-02T02:32:05.805Z,95923.30
2019-02-02T02:34:35.040Z,95942.29
2019-02-02T02:37:04.146Z,95940.74
2019-02-02T02:39:32.859Z,95940.74
2019-02-02T02:42:01.705Z,95956.84
2019-02-02T02:44:32.806Z,95945.94
2019-02-02T02:47:03.965Z,95933.38
2019-02-02T02:49:33.176Z,95935.04
2019-02-02T02:52:02.579Z,95943.71
2019-02-02T02:54:30.952Z,95951.73
2019-02-02T02:57:00.714Z,95947.73
2019-02-02T02:59:28.733Z,95963.25
2019-02-02T03:01:58.360Z,95963.91
2019-02-02T03:04:27.792Z,95974.38
2019-02-02T03:06:57.228Z,95974.38
2019-02-02T03:09:25.068Z,95964.59
2019-02-02T03:11:53.044Z,95961.03
2019-02-02T03:14:21.669Z,95943.26
2019-02-02T03:16:50.341Z,95963.50
2019-02-02T03:19:19.912Z,95965.70
2019-02-02T03:21:49.034Z,95961.00
2019-02-02T03:24:19.938Z,95968.13
2019-02-02T03:26:48.818Z,95963.91
2019-02-02T03:29:18.680Z,95963.91
2019-02-02T03:31:48.762Z,95973.27
2019-02-02T03:34:18.329Z,95979.67
2019-02-02T03:36:47.806Z,95976.91
2019-02-02T03:39:16.842Z,95976.91
2019-02-02T03:41:45.126Z,95973.64
2019-02-02T03:44:13.719Z,95973.64
2019-02-02T03:46:42.903Z,95981.63
2019-02-02T03:49:12.332Z,95981.63
2019-02-02T03:51:41.722Z,96001.56
2019-02-02T03:54:10.603Z,96001.64
2019-02-02T03:56:39.817Z,96001.64
2019-02-02T03:59:07.775Z,95998.66
2019-02-02T04:01:36.896Z,95996.78
2019-02-02T04:04:06.577Z,95988.56
2019-02-02T04:06:35.029Z,96015.53
2019-02-02T04:09:06.846Z,96051.61
2019-02-02T04:11:36.661Z,96048.19
2019-02-02T04:14:06.696Z,96042.86
2019-02-02T04:16:35.462Z,96032.85
2019-02-02T04:19:03.770Z,96032.85
2019-02-02T04:21:32.063Z,96033.86
2019-02-02T04:24:00.886Z,96046.50
2019-02-02T04:26:29.655Z,96053.66
2019-02-02T04:28:59.431Z,96050.64
2019-02-02T04:31:29.126Z,96045.31
2019-02-02T04:33:58.905Z,96030.66
2019-02-02T04:36:28.705Z,96035.27
2019-02-02T04:38:58.342Z,96038.90
2019-02-02T04:41:27.952Z,96063.77
2019-02-02T04:43:58.120Z,96075.34
2019-02-02T04:46:26.946Z,96065.22
2019-02-02T04:48:56.772Z,96048.30
2019-02-02T04:51:24.954Z,96048.30
2019-02-02T04:53:52.711Z,96021.84
2019-02-02T04:56:22.720Z,96021.84
2019-02-02T04:58:51.870Z,96005.86
2019-02-02T05:01:20.745Z,95997.05
2019-02-02T05:03:48.903Z,95995.39
2019-02-02T05:06:19.632Z,95995.39
2019-02-02T05:08:49.104Z,96014.93
2019-02-02T05:11:17.981Z,96014.93
2019-02-02T05:13:46.653Z,96045.34
2019-02-02T05:16:14.734Z,96045.34
2019-02-02T05:18:44.744Z,96094.19
2019-02-02T05:21:14.677Z,96094.19
2019-02-02T05:23:45.073Z,96094.11
2019-02-02T05:26:14.742Z,96096.17
2019-02-02T05:28:42.549Z,96096.17
2019-02-02T05:31:11.696Z,96088.40
2019-02-02T05:33:39.307Z,96096.39
2019-02-02T05:36:07.672Z,96102.40
2019-02-02T05:38:38.076Z,96071.80
2019-02-02T05:41:06.064Z,96071.80
2019-02-02T05:43:34.804Z,96070.86
2019-02-02T05:46:05.065Z,96070.86
2019-02-02T05:48:32.936Z,96049.70
2019-02-02T05:51:02.328Z,96040.95
2019-02-02T05:53:30.860Z,96061.28
2019-02-02T05:56:00.747Z,96061.28
2019-02-02T05:58:29.993Z,96091.06
2019-02-02T06:00:58.009Z,96101.89
2019-02-02T06:03:26.606Z,96093.64
2019-02-02T06:05:56.798Z,96097.41
2019-02-02T06:08:25.362Z,96097.41
2019-02-02T06:10:53.626Z,96119.57
2019-02-02T06:13:24.277Z,96120.31
2019-02-02T06:15:54.197Z,96120.31
2019-02-02T06:18:23.990Z,96144.50
2019-02-02T06:23:37.982Z,96146.31
2019-02-02T06:26:07.334Z,96131.34
2019-02-02T06:28:38.602Z,96131.34
2019-02-02T06:31:05.798Z,96142.64
2019-02-02T06:33:35.721Z,96164.09
2019-02-02T06:36:24.773Z,96157.18
2019-02-02T06:38:54.625Z,96161.55
2019-02-02T06:41:24.016Z,96176.47
2019-02-02T06:43:54.144Z,96192.01
2019-02-02T06:46:24.873Z,96192.01
2019-02-02T06:48:54.731Z,96197.75
2019-02-02T06:51:25.010Z,96197.75
2019-02-02T06:53:57.131Z,96199.41
2019-02-02T06:58:22.333Z,96194.57
2019-02-02T07:00:51.575Z,96202.76
2019-02-02T07:03:22.696Z,96202.76
2019-02-02T07:05:53.803Z,96212.36
2019-02-02T07:08:22.713Z,96202.24
2019-02-02T07:10:52.744Z,96202.24
2019-02-02T07:13:22.923Z,96206.71
2019-02-02T07:15:53.070Z,96209.12
2019-02-02T07:18:23.391Z,96219.55
2019-02-02T07:20:53.005Z,96226.11
2019-02-02T07:23:46.384Z,96226.11
2019-02-02T07:26:14.685Z,96233.20
2019-02-02T07:28:49.113Z,96242.09
2019-02-02T07:31:18.619Z,96240.86
2019-02-02T07:33:46.892Z,96239.95
2019-02-02T07:36:18.957Z,96243.53
2019-02-02T07:38:48.241Z,96235.27
2019-02-02T07:41:46.282Z,96235.27
2019-02-02T07:44:21.397Z,96261.95
2019-02-02T07:46:51.905Z,96261.95
2019-02-02T07:49:22.271Z,96269.69
2019-02-02T07:51:52.820Z,96276.34
2019-02-02T07:54:24.304Z,96276.34
2019-02-02T07:56:54.091Z,96257.40
2019-02-02T07:59:23.686Z,96257.40
2019-02-02T08:01:54.807Z,96269.60
2019-02-02T08:04:26.090Z,96280.13
2019-02-02T08:06:55.762Z,96253.78
2019-02-02T08:09:25.611Z,96253.78
2019-02-02T08:11:54.854Z,96282.94
2019-02-02T08:14:24.799Z,96275.88
2019-02-02T08:17:24.959Z,96275.88
2019-02-02T08:19:54.739Z,96309.64
2019-02-02T08:22:25.460Z,96314.37
2019-02-02T08:24:55.665Z,96333.30
2019-02-02T08:27:26.301Z,96336.53
2019-02-02T08:29:56.798Z,96336.53
2019-02-02T08:32:30.984Z,96328.19
2019-02-02T08:34:59.642Z,96338.20
2019-02-02T08:37:28.634Z,96338.20
2019-02-02T08:39:58.012Z,96360.91
2019-02-02T08:42:27.082Z,96356.30
2019-02-02T08:44:56.371Z,96356.30
2019-02-02T08:47:25.644Z,96374.39
2019-02-02T08:49:55.385Z,96385.27
2019-02-02T08:52:24.477Z,96385.27
2019-02-02T08:54:54.917Z,96380.19
2019-02-02T08:57:24.050Z,96374.77
2019-02-02T08:59:53.702Z,96374.77
2019-02-02T09:03:05.643Z,96374.86
2019-02-02T09:05:38.410Z,96376.20
2019-02-02T09:08:07.983Z,96366.73
2019-02-02T09:10:37.624Z,96366.73
2019-02-02T09:13:08.700Z,96373.93
2019-02-02T09:15:39.455Z,96387.17
2019-02-02T09:18:21.374Z,96390.34
2019-02-02T09:20:51.916Z,96397.86
2019-02-02T09:23:21.096Z,96397.86
2019-02-02T09:25:51.005Z,96382.77
2019-02-02T09:28:20.716Z,96406.80
2019-02-02T09:30:50.635Z,96410.06
2019-02-02T09:33:21.683Z,96410.06
2019-02-02T09:35:51.637Z,96413.90
2019-02-02T09:38:22.787Z,96410.04
2019-02-02T09:40:51.747Z,96401.28
2019-02-02T09:43:20.993Z,96398.10
2019-02-02T09:45:54.898Z,96398.10
2019-02-02T09:48:24.948Z,96414.40
2019-02-02T09:50:54.131Z,96414.40
2019-02-02T09:53:25.446Z,96416.30
2019-02-02T09:55:54.263Z,96416.30
2019-02-02T09:58:23.733Z,96420.03
2019-02-02T10:01:48.072Z,96419.10
2019-02-02T10:04:17.871Z,96424.99
2019-02-02T10:06:48.752Z,96426.77
2019-02-02T10:10:44.643Z,96424.99
2019-02-02T10:13:12.738Z,96438.12
2019-02-02T10:15:40.610Z,96447.67
2019-02-02T10:18:10.672Z,96447.53
2019-02-02T10:20:39.861Z,96447.53
2019-02-02T10:23:10.541Z,96443.37
2019-02-02T10:25:39.782Z,96443.37
2019-02-02T10:28:08.523Z,96450.67
2019-02-02T10:30:39.617Z,96450.67
2019-02-02T10:33:07.689Z,96457.08
2019-02-02T10:47:54.672Z,96480.36
2019-02-02T10:50:24.066Z,96480.36
2019-02-02T10:52:54.034Z,96484.61
2019-02-02T10:55:23.703Z,96489.05
2019-02-02T10:57:52.769Z,96489.05
2019-02-02T11:00:25.807Z,96491.41
2019-02-02T11:02:54.400Z,96489.22
2019-02-02T11:05:24.675Z,96490.38
2019-02-02T11:07:56.517Z,96496.81
2019-02-02T11:10:28.109Z,96496.69
2019-02-02T11:12:57.926Z,96508.68
2019-02-02T11:15:27.531Z,96510.83
2019-02-02T11:17:57.297Z,96510.83
2019-02-02T11:20:30.503Z,96507.09
2019-02-02T11:22:59.780Z,96499.86
2019-02-02T11:25:38.850Z,96499.86
2019-02-02T11:28:07.932Z,96493.57
2019-02-02T11:30:36.909Z,96493.30
2019-02-02T11:33:08.896Z,96478.23
2019-02-02T11:35:37.780Z,96483.59
2019-02-02T11:38:09.771Z,96487.09
2019-02-02T11:40:39.416Z,96487.09
2019-02-02T11:43:09.290Z,96499.48
2019-02-02T11:45:42.769Z,96506.84
2019-02-02T11:48:11.680Z,96506.84
2019-02-02T11:50:41.104Z,96505.99
2019-02-02T11:53:13.706Z,96480.92
2019-02-02T11:55:43.711Z,96498.45
2019-02-02T11:58:13.364Z,96486.87
2019-02-02T12:00:42.651Z,96486.87
2019-02-02T12:03:13.411Z,96493.38
2019-02-02T12:05:43.814Z,96493.38
2019-02-02T12:08:14.601Z,96499.42
2019-02-02T12:10:45.014Z,96486.72
2019-02-02T12:13:14.304Z,96482.41
2019-02-02T12:15:46.016Z,96482.41
2019-02-02T12:18:14.844Z,96501.59
2019-02-02T12:20:43.962Z,96469.02
2019-02-02T12:23:12.813Z,96469.02
2019-02-02T12:25:42.462Z,96486.45
2019-02-02T12:29:48.578Z,96498.52
2019-02-02T12:32:26.697Z,96500.49
2019-02-02T12:34:51.433Z,96505.81
2019-02-02T12:37:19.263Z,96509.11
2019-02-02T12:39:46.897Z,96513.36
2019-02-02T12:42:14.441Z,96519.93
2019-02-02T12:44:42.680Z,96521.17
2019-02-02T12:47:10.392Z,96528.63
2019-02-02T12:49:38.852Z,96529.34
2019-02-02T12:52:06.611Z,96503.95
2019-02-02T12:54:35.492Z,96503.95
2019-02-02T12:57:03.274Z,96525.40
2019-02-02T12:59:31.462Z,96527.21
2019-02-02T13:01:59.451Z,96532.31
2019-02-02T13:04:27.986Z,96535.06
2019-02-02T13:06:57.333Z,96535.06
2019-02-02T13:09:24.616Z,96538.89
2019-02-02T13:11:56.194Z,96546.97
2019-02-02T13:14:25.691Z,96546.97
2019-02-02T13:16:55.759Z,96545.63
2019-02-02T13:19:25.090Z,96554.33
2019-02-02T13:21:53.669Z,96557.05
2019-02-02T13:24:24.584Z,96557.05
2019-02-02T13:26:53.970Z,96552.69
2019-02-02T13:29:23.148Z,96531.83
2019-02-02T13:31:52.876Z,96540.13
2019-02-02T13:34:23.563Z,96541.95
2019-02-02T13:36:51.973Z,96541.95
2019-02-02T13:39:22.893Z,96546.17
2019-02-02T13:41:51.665Z,96557.14
2019-02-02T13:44:20.538Z,96571.34
2019-02-02T13:46:50.009Z,96571.34
2019-02-02T13:49:19.633Z,96567.70
2019-02-02T13:51:49.725Z,96567.70
2019-02-02T13:54:19.463Z,96597.19
2019-02-02T13:56:49.882Z,96599.67
2019-02-02T13:59:18.946Z,96601.09
2019-02-02T14:01:47.819Z,96601.09
2019-02-02T14:04:16.997Z,96610.98
2019-02-02T14:06:47.659Z,96615.75
2019-02-02T14:09:15.685Z,96615.75
2019-02-02T14:11:43.583Z,96627.60
2019-02-02T14:14:13.026Z,96630.84
2019-02-02T14:16:43.087Z,96633.03
2019-02-02T14:19:13.088Z,96630.95
2019-02-02T14:21:43.502Z,96630.95
2019-02-02T14:24:14.938Z,96644.66
2019-02-02T14:26:44.144Z,96636.79
2019-02-02T14:29:14.768Z,96636.79
2019-02-02T14:31:43.740Z,96667.63
2019-02-02T14:34:13.577Z,96688.04
2019-02-02T14:36:42.822Z,96689.57
2019-02-02T14:39:13.689Z,96692.27
2019-02-02T14:41:42.458Z,96692.27
2019-02-02T14:46:58.500Z,96683.34
2019-02-02T14:49:27.960Z,96683.34
2019-02-02T14:51:56.183Z,96697.28
2019-02-02T14:54:25.845Z,96704.67
2019-02-02T14:56:59.018Z,96723.26
2019-02-02T14:59:29.941Z,96723.70
2019-02-02T15:01:58.893Z,96715.87
2019-02-02T15:04:30.571Z,96713.90
2019-02-02T15:06:59.333Z,96713.90
2019-02-02T15:09:29.930Z,96728.69
2019-02-02T15:12:00.841Z,96723.33
2019-02-02T15:14:33.109Z,96721.31
2019-02-02T15:17:03.530Z,96721.31
2019-02-02T15:20:51.127Z,96735.98
2019-02-02T15:23:24.286Z,96750.31
2019-02-02T15:25:54.149Z,96750.31
2019-02-02T15:28:26.361Z,96746.73
2019-02-02T15:30:56.419Z,96746.73
2019-02-02T15:33:37.588Z,96769.66
2019-02-02T15:35:58.638Z,96769.66
2019-02-02T15:38:44.932Z,96717.63
2019-02-02T15:41:23.440Z,96717.63
2019-02-02T15:44:04.907Z,96767.39
2019-02-02T15:46:49.050Z,96771.95
2019-02-02T15:49:23.474Z,96776.41
2019-02-02T15:52:00.685Z,96759.50
2019-02-02T15:54:36.091Z,96759.50
2019-02-02T15:57:17.363Z,96759.50
2019-02-02T15:59:57.847Z,96776.52
2019-02-02T16:05:12.548Z,96768.50
2019-02-02T16:07:58.847Z,96772.23
2019-02-02T16:10:58.560Z,96764.63
2019-02-02T16:13:38.659Z,96764.63
2019-02-02T16:16:30.059Z,96772.59
2019-02-02T16:19:04.045Z,96774.56
2019-02-02T16:21:46.139Z,96771.96
2019-02-02T16:26:31.291Z,96776.47
2019-02-02T16:29:01.797Z,96782.10
2019-02-02T16:31:32.794Z,96783.87
2019-02-02T16:36:11.640Z,96798.03
2019-02-02T16:38:42.869Z,96787.05
2019-02-02T16:41:11.632Z,96804.58
2019-02-02T16:43:43.085Z,96807.42
2019-02-02T16:46:13.208Z,96807.42
2019-02-02T16:48:46.007Z,96802.25
2019-02-02T16:52:37.390Z,96823.41
2019-02-02T16:55:10.429Z,96826.31
2019-02-02T16:57:41.615Z,96823.93
2019-02-02T17:00:22.100Z,96823.93
2019-02-02T17:02:52.650Z,96833.64
2019-02-02T17:05:23.780Z,96828.33
2019-02-02T17:10:41.812Z,96835.81
2019-02-02T17:13:11.633Z,96824.70
2019-02-02T17:15:47.678Z,96840.03
2019-02-02T17:18:16.188Z,96840.03
2019-02-02T17:20:46.531Z,96850.58
2019-02-02T17:23:16.720Z,96832.75
2019-02-02T17:25:49.632Z,96844.05
2019-02-02T17:28:19.939Z,96846.99
2019-02-02T17:30:50.030Z,96846.99
2019-02-02T17:33:21.515Z,96846.28
2019-02-02T17:35:49.933Z,96832.94
2019-02-02T17:38:21.019Z,96836.72
2019-02-02T17:40:56.228Z,96836.72
2019-02-02T17:43:27.684Z,96831.84
2019-02-02T17:45:57.994Z,96868.94
2019-02-02T17:50:42.279Z,96865.36
2019-02-02T17:53:12.564Z,96860.39
2019-02-02T17:55:42.619Z,96860.39
2019-02-02T17:58:13.482Z,96860.23
2019-02-02T18:00:50.790Z,96869.25
2019-02-02T18:04:59.660Z,96879.68
2019-02-02T18:07:29.986Z,96879.68
2019-02-02T18:09:59.734Z,96895.45
2019-02-02T18:12:29.202Z,96895.45
2019-02-02T18:17:29.066Z,96932.05
2019-02-02T18:19:58.663Z,96932.05
2019-02-02T18:22:30.431Z,96940.83
2019-02-02T18:25:03.723Z,96944.56
2019-02-02T18:27:33.840Z,96935.67
2019-02-02T18:30:11.706Z,96958.45
2019-02-02T18:32:43.778Z,96958.45
2019-02-02T18:35:15.640Z,96964.45
2019-02-02T18:37:46.698Z,96971.59
2019-02-02T18:40:16.716Z,96972.89
2019-02-02T18:42:48.939Z,96959.98
2019-02-02T18:46:55.899Z,96974.98
2019-02-02T18:49:26.471Z,96978.49
2019-02-02T18:52:37.874Z,97008.61
2019-02-02T18:55:11.488Z,97008.61
2019-02-02T18:57:46.023Z,97017.16
2019-02-02T19:00:22.707Z,97029.33
2019-02-02T19:02:57.133Z,97037.49
2019-02-02T19:05:29.275Z,97037.49
2019-02-02T19:08:53.503Z,97048.11
2019-02-02T19:11:27.884Z,97048.11
2019-02-02T19:14:01.377Z,97032.08
2019-02-02T19:16:34.904Z,97024.11
2019-02-02T19:19:08.822Z,97028.38
2019-02-02T19:21:43.187Z,97030.48
2019-02-02T19:24:15.560Z,97030.48
2019-02-02T19:26:46.443Z,97056.88
2019-02-02T19:29:21.651Z,97058.98
2019-02-02T19:31:55.942Z,97060.85
2019-02-02T19:34:30.282Z,97049.81
2019-02-02T19:37:02.819Z,97078.26
2019-02-02T19:39:36.500Z,97084.41
2019-02-02T19:42:10.643Z,97084.25
2019-02-02T19:46:37.630Z,97080.25
2019-02-02T19:49:11.846Z,97084.91
2019-02-02T19:51:46.581Z,97089.43
2019-02-02T19:54:21.761Z,97089.43
2019-02-02T19:56:57.296Z,97081.34
2019-02-02T19:59:36.261Z,97081.34
2019-02-02T20:02:11.825Z,97091.91
2019-02-02T20:04:46.070Z,97099.88
2019-02-02T20:07:21.002Z,97099.88
2019-02-02T20:09:57.819Z,97114.98
2019-02-02T20:14:57.158Z,97124.20
2019-02-02T20:17:30.944Z,97124.20
2019-02-02T20:20:06.446Z,97153.80
2019-02-02T20:22:44.751Z,97153.56
2019-02-02T20:25:21.997Z,97175.75
2019-02-02T20:27:59.684Z,97175.75
2019-02-02T20:30:36.223Z,97175.75
2019-02-02T20:33:12.179Z,97185.83
2019-02-02T20:35:48.583Z,97185.84
2019-02-02T20:38:22.201Z,97185.84
2019-02-02T20:40:56.165Z,97183.97
2019-02-02T20:43:32.324Z,97183.97
2019-02-02T20:46:06.854Z,97194.56
2019-02-02T20:48:40.615Z,97191.70
2019-02-02T20:51:14.860Z,97191.94
2019-02-02T20:53:52.480Z,97191.94
2019-02-02T20:56:26.124Z,97177.07
2019-02-02T20:59:01.912Z,97177.07
2019-02-02T21:01:36.456Z,97178.98
2019-02-02T21:04:10.905Z,97193.80
2019-02-02T21:06:44.975Z,97193.80
2019-02-02T21:09:17.782Z,97193.28
2019-02-02T21:11:56.943Z,97194.06
2019-02-02T21:14:28.900Z,97194.06
2019-02-02T21:17:02.233Z,97198.03
2019-02-02T21:21:59.016Z,97185.88
2019-02-02T21:24:33.741Z,97185.88
2019-02-02T21:27:42.756Z,97178.48
2019-02-02T21:30:23.707Z,97188.53
2019-02-02T21:32:53.942Z,97188.53
2019-02-02T21:36:49.644Z,97190.13
2019-02-02T21:39:22.937Z,97193.30
2019-02-02T21:41:55.364Z,97194.37
2019-02-02T21:44:29.970Z,97202.30
2019-02-02T21:47:04.075Z,97198.88
2019-02-02T21:49:36.702Z,97202.31
2019-02-02T21:52:11.010Z,97194.63
2019-02-02T21:54:44.771Z,97208.64
2019-02-02T21:57:15.499Z,97199.91
2019-02-02T21:59:48.717Z,97199.91
2019-02-02T22:02:22.337Z,97212.61
2019-02-02T22:04:54.038Z,97216.59
2019-02-02T22:07:26.210Z,97214.20
2019-02-02T22:09:56.877Z,97205.75
2019-02-02T22:12:28.930Z,97193.84
2019-02-02T22:15:25.857Z,97209.95
2019-02-02T22:17:58.151Z,97218.16
2019-02-02T22:20:28.311Z,97213.65
2019-02-02T22:22:59.411Z,97227.37
2019-02-02T22:25:33.158Z,97229.95
2019-02-02T22:28:03.049Z,97229.95
2019-02-02T22:30:36.160Z,97242.27
2019-02-02T22:33:07.632Z,97242.27
2019-02-02T22:38:23.034Z,97247.55
2019-02-02T22:40:53.217Z,97244.63
2019-02-02T22:43:23.071Z,97244.63
2019-02-02T22:45:52.610Z,97273.09
2019-02-02T22:48:21.664Z,97273.09
2019-02-02T22:52:27.982Z,97271.47
2019-02-02T22:54:58.081Z,97271.47
2019-02-02T22:57:26.663Z,97285.43
2019-02-02T22:59:56.029Z,97292.81
2019-02-02T23:02:26.495Z,97292.81
2019-02-02T23:05:24.412Z,97300.52
2019-02-02T23:08:44.830Z,97305.80
2019-02-02T23:11:35.559Z,97310.05
2019-02-02T23:14:51.332Z,97306.64
2019-02-02T23:17:20.753Z,97306.64
2019-02-02T23:19:49.057Z,97314.84
2019-02-02T23:22:18.844Z,97314.84
2019-02-02T23:27:10.723Z,97327.56
2019-02-02T23:29:39.984Z,97329.09
2019-02-02T23:32:08.842Z,97329.09
2019-02-02T23:34:37.318Z,97333.34
2019-02-02T23:37:09.378Z,97333.34
2019-02-02T23:39:39.597Z,97334.45
2019-02-02T23:42:09.430Z,97339.48
2019-02-02T23:44:40.049Z,97349.77
2019-02-02T23:47:11.722Z,97338.40
2019-02-02T23:49:41.884Z,97340.02
2019-02-02T23:52:13.555Z,97349.47
2019-02-02T23:54:43.726Z,97349.47
2019-02-02T23:57:15.085Z,97340.23
2019-02-02T23:59:46.852Z,97357.67
